createdAt,value
2017-09-05T04:41:35.695Z,6.40
2017-09-05T04:44:03.571Z,6.30
2017-09-05T04:46:31.427Z,6.30
2017-09-05T04:48:59.044Z,6.30
2017-09-05T04:51:27.755Z,6.40
2017-09-05T04:53:55.315Z,6.40
2017-09-05T04:56:23.088Z,6.50
2017-09-05T04:58:51.043Z,7.10
2017-09-05T05:40:10.615Z,16.20
2017-09-05T05:42:39.450Z,16.60
2017-09-05T05:50:27.444Z,16.30
2017-09-05T05:52:59.523Z,16.20
2017-09-05T06:44:16.165Z,23.10
2017-09-05T06:46:43.699Z,23.60
2017-09-05T06:49:11.785Z,23.80
2017-09-05T06:51:39.541Z,23.70
2017-09-05T06:54:07.147Z,23.50
2017-09-05T06:56:34.759Z,22.70
2017-09-05T06:59:02.318Z,21.90
2017-09-05T07:01:29.982Z,22.10
2017-09-05T07:03:57.642Z,23.00
2017-09-05T07:06:25.431Z,23.40
2017-09-05T07:08:53.136Z,22.30
2017-09-05T07:11:20.706Z,21.40
2017-09-05T07:13:48.330Z,22.50
2017-09-05T07:16:15.871Z,22.60
2017-09-05T07:18:43.488Z,22.60
2017-09-05T07:21:11.059Z,22.70
2017-09-05T07:23:38.642Z,22.40
2017-09-05T07:26:06.171Z,22.40
2017-09-05T07:28:33.803Z,22.00
2017-09-05T07:31:01.523Z,23.20
2017-09-05T07:33:29.164Z,24.00
2017-09-05T07:35:56.688Z,25.20
2017-09-05T07:38:24.231Z,25.70
2017-09-05T07:40:51.757Z,26.30
2017-09-05T07:43:19.307Z,26.00
2017-09-05T07:45:46.879Z,25.60
2017-09-05T07:48:14.916Z,26.00
2017-09-05T07:50:42.759Z,25.80
2017-09-05T07:53:10.414Z,25.50
2017-09-05T07:55:41.165Z,25.60
2017-09-05T07:58:09.011Z,26.00
2017-09-05T08:00:36.690Z,26.10
2017-09-05T08:03:04.338Z,26.20
2017-09-05T08:05:31.950Z,26.20
2017-09-05T08:08:01.308Z,26.10
2017-09-05T08:10:28.997Z,25.00
2017-09-05T08:12:56.799Z,24.60
2017-09-05T08:15:24.429Z,25.30
2017-09-05T08:17:52.126Z,25.10
2017-09-05T08:20:20.342Z,25.50
2017-09-05T08:22:47.986Z,25.60
2017-09-05T08:25:19.200Z,25.40
2017-09-05T08:27:46.776Z,25.50
2017-09-05T08:30:14.362Z,26.10
2017-09-05T08:32:45.590Z,25.10
2017-09-05T08:35:13.458Z,25.10
2017-09-05T08:37:41.090Z,24.90
2017-09-05T08:40:13.428Z,25.10
2017-09-05T08:42:43.155Z,24.70
2017-09-05T08:45:10.771Z,24.30
2017-09-05T08:47:38.311Z,24.50
2017-09-05T13:33:29.100Z,21.20
2017-09-05T14:08:31.568Z,21.40
2017-09-05T14:13:49.740Z,21.40
2017-09-05T14:16:23.687Z,21.40
2017-09-05T14:18:59.083Z,21.40
2017-09-05T14:21:27.277Z,21.30
2017-09-05T14:23:56.813Z,21.10
2017-09-05T14:26:25.674Z,21.10
2017-09-05T14:28:55.398Z,21.00
2017-09-05T14:31:29.030Z,20.90
2017-09-05T14:34:01.850Z,20.90
2017-09-05T14:36:30.222Z,20.90
2017-09-05T14:38:59.663Z,21.00
2017-09-05T14:41:35.853Z,21.10
2017-09-05T14:46:47.138Z,21.00
2017-09-05T14:49:25.066Z,20.90
2017-09-05T14:54:42.542Z,21.10
2017-09-05T14:57:28.897Z,21.00
2017-09-05T15:02:47.560Z,20.70
2017-09-05T15:10:49.983Z,20.50
2017-09-05T15:13:23.686Z,20.60
2017-09-05T15:16:00.403Z,20.80
2017-09-05T15:21:24.796Z,20.90
2017-09-05T15:23:58.223Z,20.70
2017-09-05T15:29:29.074Z,20.70
2017-09-05T15:32:16.093Z,20.70
2017-09-05T15:35:05.098Z,20.60
2017-09-05T15:40:32.181Z,20.40
2017-09-05T15:43:30.478Z,20.40
2017-09-05T15:46:11.340Z,20.30
2017-09-05T15:51:29.066Z,20.30
2017-09-05T15:59:26.911Z,20.00
2017-09-05T16:05:19.518Z,20.10
2017-09-05T16:07:56.265Z,20.10
2017-09-05T16:13:31.335Z,20.20
2017-09-05T16:16:06.976Z,20.20
2017-09-05T16:18:37.223Z,20.00
2017-09-05T16:21:10.722Z,19.80
2017-09-05T16:23:41.200Z,19.70
2017-09-05T16:26:16.631Z,19.70
2017-09-05T16:28:53.435Z,19.70
2017-09-05T16:31:33.517Z,19.60
2017-09-05T16:34:09.418Z,19.50
